Time;durP1;ratioP1;P1;durP2;ratioP2;P2;SDS_P1;SDS_P2;PMS_P1;PMS_P2;Temp;Humidity;BMP_temperature;BMP_pressure;BME280_temperature;BME280_humidity;BME280_pressure;Samples;Min_cycle;Max_cycle;Signal;HPM_P1;HPM_P2
2023/08/17 00:01:31;;;;;;;10.30;9.17;;;;;;;20.39;100.00;156605.16;5056689;28;20462;-86
2023/08/17 00:03:57;;;;;;;10.33;9.10;;;;;;;20.40;100.00;156609.09;5045490;28;20457;-86
2023/08/17 00:06:25;;;;;;;10.37;9.37;;;;;;;20.43;100.00;156616.94;5062775;28;20475;-86
2023/08/17 00:08:53;;;;;;;10.20;9.20;;;;;;;20.45;100.00;156620.84;5059295;28;20859;-86
2023/08/17 00:11:20;;;;;;;10.40;9.33;;;;;;;20.47;100.00;156627.34;5060550;28;20797;-86
2023/08/17 00:13:46;;;;;;;11.37;10.37;;;;;;;20.46;100.00;156624.78;5064969;28;20811;-86
2023/08/17 00:16:13;;;;;;;11.60;10.33;;;;;;;20.44;100.00;156618.22;5063850;28;20458;-86
2023/08/17 00:18:39;;;;;;;10.93;9.83;;;;;;;20.46;100.00;156624.78;5065122;28;20465;-87
2023/08/17 00:21:09;;;;;;;11.00;10.00;;;;;;;20.46;100.00;156623.47;5054530;28;20446;-86
2023/08/17 00:23:36;;;;;;;12.67;11.37;;;;;;;20.46;100.00;156624.78;5062202;28;20537;-86
2023/08/17 00:26:03;;;;;;;12.10;10.90;;;;;;;20.44;100.00;156619.53;5051312;28;20470;-86
2023/08/17 00:28:30;;;;;;;11.23;10.13;;;;;;;20.39;100.00;156606.47;5062039;28;20463;-87
2023/08/17 00:30:57;;;;;;;11.57;10.47;;;;;;;20.36;100.00;156598.66;5063119;28;20481;-86
2023/08/17 00:33:23;;;;;;;13.33;12.03;;;;;;;20.36;100.00;156598.66;5041871;28;20549;-85
2023/08/17 00:35:50;;;;;;;12.33;11.13;;;;;;;20.38;100.00;156602.59;5059965;28;20466;-87
2023/08/17 00:38:18;;;;;;;12.73;11.53;;;;;;;20.33;100.00;156590.81;5066393;28;20464;-87
2023/08/17 00:40:45;;;;;;;12.53;10.60;;;;;;;20.33;100.00;156590.81;5065542;28;20462;-88
2023/08/17 00:43:13;;;;;;;13.17;11.87;;;;;;;20.33;100.00;156589.56;5048598;28;20470;-87
2023/08/17 00:45:40;;;;;;;13.00;11.60;;;;;;;20.30;100.00;156583.03;5065067;28;20462;-87
2023/08/17 00:48:08;;;;;;;13.77;12.37;;;;;;;20.30;100.00;156583.03;5063223;28;20462;-87
2023/08/17 00:50:35;;;;;;;13.83;12.40;;;;;;;20.32;100.00;156588.25;5049348;28;20489;-87
2023/08/17 00:53:02;;;;;;;13.07;11.77;;;;;;;20.35;100.00;156594.75;5034494;28;20458;-87
2023/08/17 00:55:29;;;;;;;13.90;12.30;;;;;;;20.35;100.00;156594.75;5064019;28;20478;-87
2023/08/17 00:57:57;;;;;;;11.73;10.63;;;;;;;20.36;100.00;156598.66;5066423;28;20843;-87
2023/08/17 01:00:26;;;;;;;13.57;12.27;;;;;;;20.38;100.00;156603.91;5068324;28;20450;-87
2023/08/17 01:02:54;;;;;;;12.77;11.47;;;;;;;20.38;100.00;156602.59;5062431;28;20464;-87
2023/08/17 01:05:21;;;;;;;12.33;11.13;;;;;;;20.37;100.00;156601.28;5056517;28;20484;-87
2023/08/17 01:07:48;;;;;;;15.40;11.70;;;;;;;20.42;100.00;156614.31;5041415;28;20464;-87
2023/08/17 01:10:14;;;;;;;12.60;11.30;;;;;;;20.45;100.00;156622.16;5066700;28;20527;-87
2023/08/17 01:12:46;;;;;;;13.27;11.97;;;;;;;20.45;100.00;156622.16;5058612;28;20461;-87
2023/08/17 01:15:14;;;;;;;13.37;12.03;;;;;;;20.43;100.00;156616.94;5063376;28;20447;-88
2023/08/17 01:17:45;;;;;;;12.07;10.87;;;;;;;20.42;100.00;156614.31;5064771;28;20520;-88
2023/08/17 01:20:13;;;;;;;15.00;12.93;;;;;;;20.41;100.00;156611.69;5045113;28;20542;-88
2023/08/17 01:22:41;;;;;;;18.20;14.50;;;;;;;20.40;100.00;156607.78;5068017;28;20859;-88
2023/08/17 01:25:10;;;;;;;17.60;14.63;;;;;;;20.42;100.00;156614.31;5067812;28;20511;-88
2023/08/17 01:27:40;;;;;;;16.70;14.00;;;;;;;20.41;100.00;156611.69;5059286;28;20464;-87
2023/08/17 01:30:08;;;;;;;17.53;13.53;;;;;;;20.41;100.00;156611.69;5062204;28;20817;-88
2023/08/17 01:32:38;;;;;;;18.40;16.07;;;;;;;20.37;100.00;156601.28;5063432;28;20483;-88
2023/08/17 01:35:09;;;;;;;17.80;15.60;;;;;;;20.34;100.00;156592.13;5054036;28;20446;-88
2023/08/17 01:37:39;;;;;;;22.73;18.03;;;;;;;20.29;100.00;156579.09;5057497;28;20462;-87
2023/08/17 01:40:07;;;;;;;19.07;16.00;;;;;;;20.26;100.00;156572.56;5055018;28;20450;-87
2023/08/17 01:42:35;;;;;;;16.33;14.60;;;;;;;20.31;100.00;156585.63;5063276;28;20488;-88
2023/08/17 01:45:02;;;;;;;17.37;15.47;;;;;;;20.33;100.00;156590.81;5069873;28;20442;-87
2023/08/17 01:47:28;;;;;;;18.90;16.90;;;;;;;20.32;100.00;156588.25;5060433;28;20520;-88
2023/08/17 01:49:59;;;;;;;17.97;15.80;;;;;;;20.26;100.00;156572.56;5068523;28;20541;-88
2023/08/17 01:52:27;;;;;;;16.40;14.67;;;;;;;20.25;100.00;156568.69;5070611;28;20512;-88
2023/08/17 01:54:54;;;;;;;17.63;15.93;;;;;;;20.26;100.00;156571.25;5069715;28;20501;-88
2023/08/17 01:57:20;;;;;;;21.40;18.80;;;;;;;20.24;100.00;156566.06;5051911;28;20581;-88
2023/08/17 01:59:48;;;;;;;22.63;17.37;;;;;;;20.26;100.00;156571.25;5070532;28;20454;-88
2023/08/17 02:02:15;;;;;;;17.40;15.70;;;;;;;20.32;100.00;156588.25;5070416;28;20561;-88
2023/08/17 02:04:42;;;;;;;21.17;17.97;;;;;;;20.34;100.00;156593.44;5066014;28;20835;-87
2023/08/17 02:07:09;;;;;;;21.83;15.87;;;;;;;20.34;100.00;156592.13;5063736;28;20578;-88
2023/08/17 02:09:36;;;;;;;18.60;14.90;;;;;;;20.33;100.00;156590.81;5072139;28;20820;-88
2023/08/17 02:12:03;;;;;;;20.10;16.60;;;;;;;20.33;100.00;156590.81;5053503;28;21044;-88
2023/08/17 02:14:29;;;;;;;20.03;16.73;;;;;;;20.30;100.00;156581.72;5031147;28;20461;-88
2023/08/17 02:16:57;;;;;;;22.07;18.40;;;;;;;20.31;100.00;156584.31;5062728;28;20462;-88
2023/08/17 02:19:24;;;;;;;17.77;15.90;;;;;;;20.32;100.00;156588.25;5042328;28;20458;-88
2023/08/17 02:21:50;;;;;;;17.97;16.10;;;;;;;20.31;100.00;156585.63;5032419;28;20457;-87
2023/08/17 02:24:17;;;;;;;18.43;16.00;;;;;;;20.35;100.00;156594.75;5048889;28;20900;-88
2023/08/17 02:26:44;;;;;;;23.80;17.70;;;;;;;20.32;100.00;156588.25;5058212;28;20864;-88
2023/08/17 02:29:10;;;;;;;19.03;16.17;;;;;;;20.34;100.00;156593.44;5066058;28;20476;-88
2023/08/17 02:31:37;;;;;;;18.87;16.13;;;;;;;20.36;100.00;156597.38;5070565;28;20451;-88
2023/08/17 02:34:05;;;;;;;18.87;16.50;;;;;;;20.31;100.00;156585.63;5061218;28;20479;-88
2023/08/17 02:36:33;;;;;;;18.03;16.10;;;;;;;20.27;100.00;156575.19;5057530;28;20913;-88
2023/08/17 02:38:59;;;;;;;18.50;16.37;;;;;;;20.26;100.00;156572.56;5059739;28;20454;-87
2023/08/17 02:41:26;;;;;;;17.33;15.60;;;;;;;20.26;100.00;156572.56;5069148;28;20457;-88
2023/08/17 02:43:53;;;;;;;19.57;16.90;;;;;;;20.25;100.00;156568.69;5061852;28;20492;-88
2023/08/17 02:46:19;;;;;;;21.40;18.80;;;;;;;20.23;100.00;156564.69;5062138;28;20797;-88
2023/08/17 02:48:47;;;;;;;22.80;18.40;;;;;;;20.22;100.00;156562.13;5065684;28;20466;-88
2023/08/17 02:51:15;;;;;;;19.07;15.50;;;;;;;20.20;100.00;156556.84;5061855;28;20453;-88
2023/08/17 02:53:42;;;;;;;18.30;15.60;;;;;;;20.19;100.00;156552.97;5065389;28;20561;-88
2023/08/17 02:56:11;;;;;;;16.17;13.83;;;;;;;20.17;100.00;156549.06;5064157;28;20488;-88
2023/08/17 02:58:40;;;;;;;16.80;15.10;;;;;;;20.17;100.00;156549.06;5058186;28;20466;-88
2023/08/17 03:01:06;;;;;;;18.33;15.93;;;;;;;20.13;100.00;156537.31;5054145;28;20856;-88
2023/08/17 03:03:33;;;;;;;22.70;18.17;;;;;;;20.09;100.00;156528.22;5077525;28;20493;-88
2023/08/17 03:05:59;;;;;;;22.10;18.67;;;;;;;20.10;100.00;156530.78;5073047;28;20481;-88
2023/08/17 03:08:27;;;;;;;21.00;16.70;;;;;;;20.08;100.00;156525.59;5054786;28;20465;-88
2023/08/17 03:10:54;;;;;;;20.20;17.23;;;;;;;20.10;100.00;156529.47;5077746;28;20497;-88
2023/08/17 03:13:21;;;;;;;22.90;18.03;;;;;;;20.10;100.00;156529.47;5059520;28;21295;-87
2023/08/17 03:15:47;;;;;;;18.60;16.60;;;;;;;20.11;100.00;156532.09;5038852;28;20474;-88
2023/08/17 03:18:15;;;;;;;19.30;16.30;;;;;;;20.10;100.00;156530.78;5061681;28;20774;-88
2023/08/17 03:20:42;;;;;;;20.27;17.70;;;;;;;20.08;100.00;156524.25;5063269;28;20814;-88
2023/08/17 03:23:10;;;;;;;21.70;16.77;;;;;;;20.04;100.00;156515.19;5065320;28;20454;-88
2023/08/17 03:25:38;;;;;;;17.87;16.07;;;;;;;20.10;100.00;156530.78;5061226;28;20578;-88
2023/08/17 03:28:05;;;;;;;18.67;16.60;;;;;;;20.06;100.00;156520.38;5064745;28;20674;-88
2023/08/17 03:30:31;;;;;;;18.80;16.80;;;;;;;20.01;100.00;156507.34;5043620;28;20564;-88
2023/08/17 03:32:58;;;;;;;18.50;16.67;;;;;;;20.00;100.00;156504.72;5047965;28;20517;-88
2023/08/17 03:35:26;;;;;;;20.10;16.00;;;;;;;20.02;100.00;156511.22;5065535;28;20987;-88
2023/08/17 03:37:52;;;;;;;17.17;15.20;;;;;;;19.98;100.00;156499.50;5062499;28;20565;-88
2023/08/17 03:40:19;;;;;;;16.53;14.87;;;;;;;19.94;100.00;156489.06;5069734;28;20568;-88
2023/08/17 03:42:48;;;;;;;19.17;16.47;;;;;;;19.96;100.00;156494.31;5053433;28;20454;-88
2023/08/17 03:45:15;;;;;;;19.33;17.10;;;;;;;19.91;100.00;156482.53;5048808;28;20557;-88
2023/08/17 03:47:42;;;;;;;18.50;16.37;;;;;;;19.93;100.00;156486.47;5058943;28;20939;-89
2023/08/17 03:50:10;;;;;;;17.87;15.97;;;;;;;19.92;100.00;156483.84;5046062;28;20473;-89
2023/08/17 03:52:36;;;;;;;19.70;17.50;;;;;;;19.95;100.00;156493.00;5037710;28;20804;-89
2023/08/17 03:55:06;;;;;;;21.60;18.87;;;;;;;19.95;100.00;156491.69;5051234;28;20565;-89
2023/08/17 03:57:33;;;;;;;24.37;19.70;;;;;;;19.92;100.00;156483.84;5062274;28;20446;-89
2023/08/17 04:00:01;;;;;;;22.67;20.40;;;;;;;19.91;100.00;156481.22;5063918;28;20451;-89
2023/08/17 04:02:27;;;;;;;25.43;19.10;;;;;;;19.90;100.00;156479.97;5047055;28;20454;-89
2023/08/17 04:04:54;;;;;;;20.50;17.50;;;;;;;19.89;100.00;156476.03;5063930;28;20973;-89
2023/08/17 04:07:24;;;;;;;20.07;17.10;;;;;;;19.89;100.00;156476.03;5058481;28;20490;-89
2023/08/17 04:09:53;;;;;;;22.00;17.97;;;;;;;19.88;100.00;156474.69;5039998;28;20935;-89
2023/08/17 04:12:20;;;;;;;20.20;18.10;;;;;;;19.92;100.00;156483.84;5061858;28;20956;-89
2023/08/17 04:14:46;;;;;;;21.67;19.10;;;;;;;19.95;100.00;156491.69;5041649;28;20466;-89
2023/08/17 04:17:15;;;;;;;21.07;18.40;;;;;;;19.96;100.00;156494.31;5046509;28;20534;-89
2023/08/17 04:19:42;;;;;;;22.57;18.37;;;;;;;19.96;100.00;156494.31;5048439;28;20473;-89
2023/08/17 04:22:09;;;;;;;23.00;18.97;;;;;;;19.98;100.00;156499.50;5059624;28;20448;-89
2023/08/17 04:24:39;;;;;;;21.60;18.17;;;;;;;20.01;100.00;156507.34;5061829;28;20532;-89
2023/08/17 04:27:05;;;;;;;24.30;19.33;;;;;;;20.01;100.00;156507.34;5055834;28;20470;-89
2023/08/17 04:29:32;;;;;;;23.10;19.50;;;;;;;19.93;100.00;156486.47;5064475;28;20986;-89
2023/08/17 04:32:02;;;;;;;25.90;19.27;;;;;;;19.90;100.00;156479.97;5064382;28;20515;-89
2023/08/17 04:34:29;;;;;;;22.23;17.90;;;;;;;19.92;100.00;156483.84;5063772;28;20829;-90
2023/08/17 04:36:56;;;;;;;20.37;18.17;;;;;;;19.91;100.00;156481.22;5042728;28;20446;-89
2023/08/17 04:39:23;;;;;;;22.40;18.93;;;;;;;19.96;100.00;156494.31;5061112;28;20446;-90
2023/08/17 04:41:50;;;;;;;26.37;21.13;;;;;;;19.96;100.00;156494.31;5063101;28;20513;-90
2023/08/17 04:44:23;;;;;;;22.03;19.23;;;;;;;19.96;100.00;156494.31;5047558;28;20469;-90
2023/08/17 04:46:50;;;;;;;23.73;20.10;;;;;;;19.93;100.00;156487.78;5065687;28;20470;-89
2023/08/17 04:49:17;;;;;;;20.10;18.10;;;;;;;19.89;100.00;156477.34;5059066;28;20462;-90
2023/08/17 04:51:45;;;;;;;21.50;19.20;;;;;;;19.88;100.00;156473.44;5043217;28;20910;-89
2023/08/17 04:54:11;;;;;;;20.10;18.00;;;;;;;19.86;100.00;156468.19;5076537;28;20539;-91
2023/08/17 04:56:38;;;;;;;21.97;19.23;;;;;;;19.85;100.00;156465.63;5046394;28;20446;-89
2023/08/17 04:59:05;;;;;;;19.20;17.20;;;;;;;19.88;100.00;156474.69;5062049;28;20462;-89
2023/08/17 05:01:32;;;;;;;20.47;18.27;;;;;;;19.93;100.00;156486.47;5061157;28;20553;-90
2023/08/17 05:03:59;;;;;;;21.27;18.97;;;;;;;19.96;100.00;156495.56;5062151;28;20458;-90
2023/08/17 05:06:28;;;;;;;24.10;20.10;;;;;;;19.91;100.00;156481.22;5075169;28;20470;-90
2023/08/17 05:08:57;;;;;;;21.17;18.90;;;;;;;19.92;100.00;156485.16;5057470;28;20873;-90
2023/08/17 05:11:24;;;;;;;22.27;19.07;;;;;;;19.92;100.00;156485.16;5044033;28;20442;-91
2023/08/17 05:13:51;;;;;;;22.90;20.50;;;;;;;19.92;100.00;156485.16;5058637;28;21110;-88
2023/08/17 05:16:18;;;;;;;21.17;18.97;;;;;;;19.93;100.00;156486.47;5060836;28;20489;-88
2023/08/17 05:18:45;;;;;;;22.57;19.50;;;;;;;19.92;100.00;156485.16;5060796;28;20446;-88
2023/08/17 05:21:15;;;;;;;21.80;19.50;;;;;;;19.93;100.00;156486.47;5059570;28;20441;-88
2023/08/17 05:23:42;;;;;;;23.73;21.23;;;;;;;19.94;100.00;156489.06;5060612;28;20895;-88
2023/08/17 05:26:10;;;;;;;24.03;20.70;;;;;;;19.92;100.00;156485.16;5059472;28;20549;-88
2023/08/17 05:28:37;;;;;;;22.40;20.00;;;;;;;19.95;100.00;156493.00;5058606;28;20482;-88
2023/08/17 05:31:05;;;;;;;22.00;18.60;;;;;;;20.03;100.00;156512.53;5064502;28;20858;-88
2023/08/17 05:33:34;;;;;;;19.20;17.13;;;;;;;20.07;100.00;156522.94;5047965;28;20900;-88
2023/08/17 05:36:00;;;;;;;20.33;18.13;;;;;;;20.12;100.00;156534.72;5068761;28;20462;-88
2023/08/17 05:38:27;;;;;;;21.53;18.17;;;;;;;20.11;100.00;156533.41;5061287;28;20443;-88
2023/08/17 05:40:59;;;;;;;19.50;16.47;;;;;;;20.16;100.00;156546.44;5080222;28;20450;-88
2023/08/17 05:43:27;;;;;;;23.67;16.27;;;;;;;20.20;100.00;156556.84;5078523;28;20495;-88
2023/08/17 05:45:53;;;;;;;19.47;17.30;;;;;;;20.20;100.00;156556.84;5079386;28;20449;-88
2023/08/17 05:48:23;;;;;;;17.93;16.10;;;;;;;20.18;100.00;156551.66;5062768;28;20470;-87
2023/08/17 05:50:54;;;;;;;18.13;16.20;;;;;;;20.28;100.00;156577.78;5061443;28;20936;-87
2023/08/17 05:53:23;;;;;;;16.73;15.03;;;;;;;20.30;100.00;156583.03;5073431;28;20530;-87
2023/08/17 05:55:49;;;;;;;19.13;16.47;;;;;;;20.54;100.00;156645.59;5076634;28;20828;-86
2023/08/17 05:58:16;;;;;;;18.67;16.70;;;;;;;20.63;100.00;156669.09;5062460;28;20455;-87
2023/08/17 06:00:44;;;;;;;17.93;16.07;;;;;;;20.61;100.00;156662.59;5077537;28;20469;-87
2023/08/17 06:03:11;;;;;;;17.03;15.03;;;;;;;20.57;100.00;156653.44;5078967;28;20919;-87
2023/08/17 06:05:38;;;;;;;18.70;16.70;;;;;;;20.62;100.00;156666.47;5061532;28;20828;-86
2023/08/17 06:08:05;;;;;;;18.57;16.37;;;;;;;20.62;100.00;156666.47;5064167;28;20818;-86
2023/08/17 06:10:32;;;;;;;17.40;14.60;;;;;;;20.61;100.00;156663.91;5062194;28;20446;-87
2023/08/17 06:12:58;;;;;;;18.63;15.27;;;;;;;20.63;100.00;156669.09;5061646;28;20511;-87
2023/08/17 06:15:25;;;;;;;18.43;16.53;;;;;;;20.65;100.00;156673.03;5060204;28;20451;-87
2023/08/17 06:17:53;;;;;;;18.50;15.10;;;;;;;20.67;100.00;156676.94;5063043;28;20466;-87
2023/08/17 06:20:20;;;;;;;18.03;15.30;;;;;;;20.71;100.00;156687.34;5060982;28;20459;-87
2023/08/17 06:22:48;;;;;;;16.63;15.00;;;;;;;20.80;100.00;156710.84;5076018;28;20465;-87
2023/08/17 06:25:15;;;;;;;16.13;14.43;;;;;;;20.80;100.00;156712.16;5072294;28;20457;-88
2023/08/17 06:27:42;;;;;;;16.23;14.30;;;;;;;20.85;100.00;156723.91;5080109;28;20523;-87
2023/08/17 06:30:10;;;;;;;15.57;13.90;;;;;;;20.88;100.00;156731.75;5060375;28;20449;-87
2023/08/17 06:32:36;;;;;;;16.03;14.33;;;;;;;20.84;100.00;156721.28;5078973;28;20486;-87
2023/08/17 06:35:06;;;;;;;19.13;16.20;;;;;;;20.85;100.00;156723.91;5080563;28;20476;-87
2023/08/17 06:37:32;;;;;;;17.27;15.57;;;;;;;20.86;100.00;156727.84;5058968;28;20840;-87
2023/08/17 06:39:59;;;;;;;16.37;14.70;;;;;;;20.94;100.00;156747.41;5060876;28;20588;-87
2023/08/17 06:42:25;;;;;;;16.47;14.77;;;;;;;20.89;100.00;156734.38;5060482;28;20461;-87
2023/08/17 06:44:52;;;;;;;16.00;14.27;;;;;;;20.92;100.00;156742.16;5065406;28;20446;-87
2023/08/17 06:47:18;;;;;;;16.70;15.00;;;;;;;21.02;100.00;156768.28;5046227;28;20486;-86
2023/08/17 06:49:45;;;;;;;19.23;15.37;;;;;;;21.08;100.00;156783.97;5047581;28;20453;-87
2023/08/17 06:52:13;;;;;;;16.33;14.63;;;;;;;21.08;100.00;156783.97;5063186;28;20449;-87
2023/08/17 06:54:39;;;;;;;16.63;14.47;;;;;;;21.12;100.00;156794.44;5063179;28;20461;-87
2023/08/17 06:57:06;;;;;;;17.30;14.30;;;;;;;21.10;100.00;156789.22;5056322;28;20442;-87
2023/08/17 06:59:34;;;;;;;15.97;14.40;;;;;;;21.10;100.00;156789.22;5062795;28;20528;-86
2023/08/17 07:02:00;;;;;;;16.30;14.70;;;;;;;21.26;100.00;156830.94;5058981;28;20544;-86
2023/08/17 07:04:27;;;;;;;18.10;16.13;;;;;;;21.34;100.00;156851.81;5060084;28;20458;-86
2023/08/17 07:06:53;;;;;;;18.03;15.30;;;;;;;21.66;100.00;156935.38;5058179;28;20450;-86
2023/08/17 07:09:21;;;;;;;16.87;15.10;;;;;;;21.94;100.00;157005.94;5060306;28;20480;-87
2023/08/17 07:11:48;;;;;;;17.77;15.00;;;;;;;22.29;100.00;157098.63;5078786;28;20538;-87
2023/08/17 07:14:14;;;;;;;17.17;15.37;;;;;;;22.42;100.00;157131.31;5062390;28;20457;-86
2023/08/17 07:16:41;;;;;;;15.83;14.13;;;;;;;22.61;100.00;157179.66;5060238;28;20887;-86
2023/08/17 07:19:08;;;;;;;14.40;12.90;;;;;;;22.86;100.00;157246.31;5057712;28;20549;-86
2023/08/17 07:21:35;;;;;;;14.70;13.20;;;;;;;23.08;100.00;157302.53;5061128;28;20507;-86
2023/08/17 07:24:12;;;;;;;14.87;13.10;;;;;;;23.15;100.00;157320.81;5058832;28;20485;-84
2023/08/17 07:26:40;;;;;;;14.73;12.73;;;;;;;23.16;100.00;157323.44;5062303;28;20962;-86
2023/08/17 07:29:07;;;;;;;16.47;14.87;;;;;;;23.11;100.00;157310.38;5062061;28;20479;-86
2023/08/17 07:31:37;;;;;;;17.77;16.07;;;;;;;23.07;100.00;157298.56;5059269;28;20452;-89
2023/08/17 07:34:04;;;;;;;17.80;16.00;;;;;;;23.12;100.00;157311.63;5070680;28;20477;-91
2023/08/17 07:36:30;;;;;;;17.90;16.00;;;;;;;23.01;100.00;157284.19;5071041;28;20447;-91
2023/08/17 07:38:57;;;;;;;18.37;16.43;;;;;;;22.93;100.00;157264.59;5069325;28;20449;-91
2023/08/17 07:41:23;;;;;;;17.47;15.70;;;;;;;22.91;100.00;157259.38;5069170;28;20825;-91
2023/08/17 07:43:51;;;;;;;19.10;16.40;;;;;;;22.91;100.00;157258.06;5069360;28;20446;-92
2023/08/17 07:46:18;;;;;;;17.63;15.77;;;;;;;23.09;100.00;157305.09;5069568;28;20445;-92
2023/08/17 07:48:45;;;;;;;16.80;15.10;;;;;;;23.24;99.10;157343.03;5070701;28;20461;-91
2023/08/17 07:51:11;;;;;;;14.40;12.90;;;;;;;23.34;100.00;157369.16;5070168;28;20437;-91
2023/08/17 07:53:38;;;;;;;17.47;15.27;;;;;;;23.53;99.19;157418.88;5070442;28;20445;-91
2023/08/17 07:56:05;;;;;;;20.57;14.37;;;;;;;23.68;98.06;157458.09;5070731;28;20462;-91
2023/08/17 07:58:31;;;;;;;16.03;13.97;;;;;;;23.85;96.76;157501.25;5070588;28;20933;-91
2023/08/17 08:00:59;;;;;;;15.87;14.27;;;;;;;23.99;96.21;157539.13;5052810;28;20501;-91
2023/08/17 08:03:26;;;;;;;17.00;15.20;;;;;;;24.09;96.20;157565.34;5070944;28;20491;-91
2023/08/17 08:05:53;;;;;;;18.27;15.17;;;;;;;24.20;97.41;157592.78;5068980;28;20450;-91
2023/08/17 08:08:19;;;;;;;17.40;14.37;;;;;;;24.35;94.76;157630.75;5069225;28;20571;-91
2023/08/17 08:10:46;;;;;;;16.70;14.60;;;;;;;24.66;90.37;157711.84;5070560;28;20533;-92
2023/08/17 08:13:13;;;;;;;13.27;11.83;;;;;;;24.85;88.80;157761.59;5070378;28;20782;-92
2023/08/17 08:15:40;;;;;;;15.20;13.60;;;;;;;24.83;89.05;157756.38;5070674;28;20446;-89
2023/08/17 08:18:08;;;;;;;13.43;12.13;;;;;;;25.05;89.83;157813.91;5068919;28;20440;-92
2023/08/17 08:20:34;;;;;;;12.57;11.37;;;;;;;25.31;88.84;157880.69;5070398;28;20462;-91
2023/08/17 08:23:01;;;;;;;13.13;11.73;;;;;;;25.46;90.09;157920.00;5070493;28;20443;-91
2023/08/17 08:25:28;;;;;;;14.63;13.13;;;;;;;25.72;91.07;157988.06;5070097;28;20438;-91
2023/08/17 08:27:54;;;;;;;12.60;11.30;;;;;;;25.75;86.67;157994.59;5068833;28;20476;-91
2023/08/17 08:30:21;;;;;;;13.83;10.77;;;;;;;26.00;85.44;158060.03;5071107;28;20445;-92
2023/08/17 08:32:47;;;;;;;11.83;10.73;;;;;;;26.09;86.09;158083.63;5068429;28;20983;-91
2023/08/17 08:35:15;;;;;;;11.13;10.00;;;;;;;26.18;89.86;158105.94;5069623;28;20458;-91
2023/08/17 08:37:42;;;;;;;12.60;11.40;;;;;;;26.19;87.08;158108.53;5068741;28;20449;-90
2023/08/17 08:40:12;;;;;;;11.63;10.53;;;;;;;26.21;81.54;158113.81;5070552;28;20777;-91
2023/08/17 08:42:38;;;;;;;10.63;9.63;;;;;;;26.23;82.51;158119.03;5068724;28;20454;-91
2023/08/17 08:45:06;;;;;;;12.00;10.73;;;;;;;26.36;82.72;158153.06;5069902;28;20941;-91
2023/08/17 08:47:35;;;;;;;11.60;10.50;;;;;;;26.57;84.61;158208.06;5056301;28;20631;-90
2023/08/17 08:50:03;;;;;;;11.10;10.00;;;;;;;26.58;82.85;158212.00;5075022;28;20474;-91
2023/08/17 08:52:35;;;;;;;10.50;9.50;;;;;;;26.63;85.68;158223.81;5061995;28;20523;-91
2023/08/17 08:55:12;;;;;;;10.40;9.40;;;;;;;26.46;83.91;158180.56;5060415;28;20524;-92
2023/08/17 08:57:40;;;;;;;9.30;8.40;;;;;;;26.51;86.87;158193.66;5060702;28;20433;-91
2023/08/17 09:00:09;;;;;;;9.03;8.23;;;;;;;26.69;83.97;158239.50;5064279;28;20524;-91
2023/08/17 09:02:36;;;;;;;8.97;8.13;;;;;;;26.63;81.51;158225.09;5065165;28;20459;-91
2023/08/17 09:05:02;;;;;;;9.70;8.80;;;;;;;26.91;79.40;158297.19;5067534;28;20453;-91
2023/08/17 09:07:30;;;;;;;9.57;8.77;;;;;;;27.11;79.19;158349.59;5066406;28;20447;-91
2023/08/17 09:09:58;;;;;;;9.83;8.83;;;;;;;27.27;79.58;158390.19;5067584;28;20473;-90
2023/08/17 09:12:25;;;;;;;7.90;7.20;;;;;;;27.28;81.01;158391.50;5067321;28;20442;-92
2023/08/17 09:14:51;;;;;;;9.07;8.30;;;;;;;27.30;83.76;158398.06;5066588;28;20457;-91
2023/08/17 09:17:24;;;;;;;8.90;8.00;;;;;;;27.31;77.53;158399.38;5082595;28;20459;-90
2023/08/17 09:19:50;;;;;;;9.20;8.30;;;;;;;27.39;83.38;158421.69;5060063;28;20474;-92
2023/08/17 09:22:23;;;;;;;9.90;7.77;;;;;;;27.28;80.61;158392.84;5062507;28;20510;-91
2023/08/17 09:24:50;;;;;;;8.87;8.10;;;;;;;27.22;79.07;158377.09;5081487;28;20450;-91
2023/08/17 09:27:18;;;;;;;9.13;8.23;;;;;;;27.29;76.01;158394.16;5061461;28;20852;-91
2023/08/17 09:29:45;;;;;;;8.90;8.10;;;;;;;27.29;76.01;158394.16;5072625;28;20485;-91
2023/08/17 09:32:12;;;;;;;8.83;8.03;;;;;;;27.38;83.79;158419.03;5060823;28;20716;-91
2023/08/17 09:34:39;;;;;;;9.10;8.30;;;;;;;27.22;76.08;158377.09;5062605;28;20499;-85
2023/08/17 09:37:05;;;;;;;8.90;8.10;;;;;;;27.24;77.43;158382.38;5062924;28;20441;-91
2023/08/17 09:39:32;;;;;;;10.23;9.23;;;;;;;27.16;80.55;158361.41;5062818;28;20457;-91
2023/08/17 09:42:00;;;;;;;9.23;7.83;;;;;;;27.15;80.19;158358.78;5061821;28;20442;-91
2023/08/17 09:44:28;;;;;;;10.13;9.13;;;;;;;27.22;79.14;158375.81;5063466;28;20462;-91
2023/08/17 09:47:08;;;;;;;11.07;9.97;;;;;;;27.23;80.65;158379.75;5068153;28;20466;-91
2023/08/17 09:49:35;;;;;;;11.37;9.77;;;;;;;27.32;80.38;158402.03;5078292;28;20485;-91
2023/08/17 09:52:02;;;;;;;10.43;9.43;;;;;;;27.38;79.14;158419.03;5059222;28;21064;-91
2023/08/17 09:54:31;;;;;;;9.73;8.93;;;;;;;27.25;79.61;158383.66;5065754;28;20514;-91
2023/08/17 09:56:58;;;;;;;7.90;7.30;;;;;;;27.27;77.85;158390.19;5063375;28;20449;-91
2023/08/17 09:59:25;;;;;;;8.43;7.63;;;;;;;27.32;82.21;158403.34;5064442;28;20458;-91
2023/08/17 10:01:53;;;;;;;8.00;7.20;;;;;;;27.35;79.97;158411.16;5067012;28;20461;-91
2023/08/17 10:04:23;;;;;;;8.67;7.77;;;;;;;27.50;77.57;158450.56;5066470;28;20807;-91
2023/08/17 10:06:53;;;;;;;8.80;8.00;;;;;;;27.67;76.24;158495.09;5079294;28;20497;-91
2023/08/17 10:09:25;;;;;;;8.00;7.30;;;;;;;27.69;75.62;158500.31;5063931;28;21021;-90
2023/08/17 10:11:52;;;;;;;8.47;7.67;;;;;;;27.65;77.43;158488.53;5049122;28;20454;-91
2023/08/17 10:14:23;;;;;;;8.10;7.30;;;;;;;27.69;79.37;158500.31;5045765;28;20462;-91
2023/08/17 10:16:54;;;;;;;9.90;9.00;;;;;;;27.70;77.99;158502.97;5064886;28;20783;-91
2023/08/17 10:19:35;;;;;;;10.27;9.37;;;;;;;27.71;76.90;158505.59;5074883;28;21026;-91
2023/08/17 10:22:06;;;;;;;9.57;8.70;;;;;;;27.71;77.43;158505.59;5078770;28;20458;-91
2023/08/17 10:24:36;;;;;;;9.83;8.87;;;;;;;27.73;77.62;158509.53;5081786;28;20547;-91
2023/08/17 10:27:03;;;;;;;8.13;7.43;;;;;;;27.72;78.72;158508.19;5061270;28;20803;-90
2023/08/17 10:29:30;;;;;;;9.53;8.73;;;;;;;27.72;76.92;158508.19;5062116;28;20482;-93
2023/08/17 10:31:59;;;;;;;8.20;7.37;;;;;;;27.73;78.09;158509.53;5064857;28;20479;-89
2023/08/17 10:34:26;;;;;;;8.67;7.87;;;;;;;27.70;77.81;158502.97;5062993;28;20454;-90
2023/08/17 10:36:57;;;;;;;9.10;8.30;;;;;;;27.75;78.67;158514.75;5070372;28;20945;-90
2023/08/17 10:39:25;;;;;;;8.30;7.50;;;;;;;27.75;78.96;158516.06;5057951;28;20457;-90
2023/08/17 10:41:53;;;;;;;8.57;7.87;;;;;;;27.85;77.80;158539.69;5061062;28;20458;-90
2023/08/17 10:44:38;;;;;;;8.77;7.97;;;;;;;27.93;76.83;158561.97;5060522;28;20480;-93
2023/08/17 10:47:22;;;;;;;9.33;8.53;;;;;;;27.84;77.49;158538.38;5060355;28;20950;-90
2023/08/17 10:49:50;;;;;;;9.53;8.67;;;;;;;27.76;77.34;158518.72;5061341;28;20493;-91
2023/08/17 10:52:26;;;;;;;8.10;7.40;;;;;;;27.67;76.82;158495.09;5064557;28;20446;-90
2023/08/17 10:54:52;;;;;;;8.07;7.37;;;;;;;27.78;77.07;158523.94;5064351;28;20450;-90
2023/08/17 10:57:26;;;;;;;8.27;7.57;;;;;;;27.71;77.18;158505.59;5065277;28;20513;-90
2023/08/17 11:00:10;;;;;;;9.43;8.63;;;;;;;27.74;76.00;158513.47;5064489;28;20452;-90
2023/08/17 11:02:39;;;;;;;8.87;8.07;;;;;;;27.66;77.03;158492.50;5078537;28;20446;-92
2023/08/17 11:05:07;;;;;;;9.87;8.97;;;;;;;27.78;77.38;158523.94;5064096;28;20450;-92
2023/08/17 11:07:40;;;;;;;9.87;8.90;;;;;;;27.75;75.81;158516.06;5060459;28;20940;-90
2023/08/17 11:10:12;;;;;;;9.20;8.40;;;;;;;27.68;76.36;158496.41;5070729;28;20482;-90